createdAt,value
2023-04-22T00:01:08.377Z,1.75
2023-04-22T00:03:38.690Z,2.20
2023-04-22T00:06:07.286Z,2.50
2023-04-22T00:08:35.196Z,2.03
2023-04-22T00:11:03.434Z,2.42
2023-04-22T00:13:31.167Z,1.92
2023-04-22T00:15:59.088Z,2.08
2023-04-22T00:18:27.227Z,1.90
2023-04-22T00:20:56.709Z,1.50
2023-04-22T00:23:24.445Z,2.00
2023-04-22T00:25:52.261Z,1.58
2023-04-22T00:28:20.016Z,2.15
2023-04-22T00:30:47.775Z,1.73
2023-04-22T00:33:15.479Z,1.95
2023-04-22T00:35:43.236Z,2.28
2023-04-22T00:38:12.337Z,1.52
2023-04-22T00:40:40.068Z,2.15
2023-04-22T00:43:10.183Z,2.15
2023-04-22T00:45:40.158Z,1.73
2023-04-22T00:48:09.225Z,2.17
2023-04-22T00:50:37.070Z,1.65
2023-04-22T00:53:05.395Z,2.03
2023-04-22T00:55:34.932Z,2.40
2023-04-22T00:58:05.290Z,2.30
2023-04-22T01:00:33.740Z,2.95
2023-04-22T01:03:02.021Z,2.42
2023-04-22T01:05:32.478Z,2.47
2023-04-22T01:08:00.701Z,1.95
2023-04-22T01:10:28.595Z,2.78
2023-04-22T01:12:57.840Z,2.47
2023-04-22T01:15:25.730Z,3.55
2023-04-22T01:17:54.820Z,3.05
2023-04-22T01:20:23.775Z,2.30
2023-04-22T01:22:56.253Z,1.92
2023-04-22T01:25:25.949Z,1.88
2023-04-22T01:27:54.498Z,2.20
2023-04-22T01:30:22.359Z,1.70
2023-04-22T01:32:50.776Z,2.38
2023-04-22T01:35:18.645Z,2.67
2023-04-22T01:37:46.414Z,1.30
2023-04-22T01:40:19.566Z,2.08
2023-04-22T01:42:49.030Z,2.08
2023-04-22T01:45:17.414Z,2.90
2023-04-22T01:47:45.148Z,2.53
2023-04-22T01:50:12.882Z,2.72
2023-04-22T01:52:40.697Z,2.97
2023-04-22T01:55:10.265Z,2.63
2023-04-22T01:57:38.322Z,3.15
2023-04-22T02:00:10.200Z,2.90
2023-04-22T02:02:38.027Z,2.40
2023-04-22T02:05:08.318Z,3.05
2023-04-22T02:07:37.101Z,2.47
2023-04-22T02:10:05.231Z,2.22
2023-04-22T02:12:33.625Z,2.30
2023-04-22T02:15:01.429Z,2.90
2023-04-22T02:17:35.717Z,2.67
2023-04-22T02:20:04.474Z,2.47
2023-04-22T02:22:34.286Z,2.40
2023-04-22T02:25:02.104Z,2.53
2023-04-22T02:27:29.874Z,2.40
2023-04-22T02:29:57.638Z,3.03
2023-04-22T02:32:25.455Z,2.67
2023-04-22T02:34:54.554Z,2.90
2023-04-22T02:37:22.815Z,3.15
2023-04-22T02:39:50.836Z,2.95
2023-04-22T02:42:18.541Z,2.83
2023-04-22T02:44:46.229Z,3.00
2023-04-22T02:47:14.106Z,2.63
2023-04-22T02:49:42.299Z,2.33
2023-04-22T02:52:11.532Z,3.40
2023-04-22T02:54:39.457Z,2.75
2023-04-22T02:57:07.630Z,3.05
2023-04-22T02:59:36.153Z,2.78
2023-04-22T03:02:06.518Z,3.28
2023-04-22T03:04:34.789Z,2.58
2023-04-22T03:07:02.915Z,2.85
2023-04-22T03:09:31.977Z,2.70
2023-04-22T03:11:59.702Z,2.58
2023-04-22T03:14:27.448Z,2.95
2023-04-22T03:16:55.479Z,2.80
2023-04-22T03:19:23.329Z,3.22
2023-04-22T03:21:51.064Z,3.70
2023-04-22T03:24:18.888Z,3.10
2023-04-22T03:26:47.955Z,3.15
2023-04-22T03:29:15.743Z,2.75
2023-04-22T03:31:43.784Z,2.75
2023-04-22T03:34:11.529Z,2.38
2023-04-22T03:36:39.397Z,3.38
2023-04-22T03:39:07.174Z,3.22
2023-04-22T03:41:34.891Z,2.70
2023-04-22T03:44:04.053Z,2.70
2023-04-22T03:46:32.416Z,2.42
2023-04-22T03:49:00.288Z,2.50
2023-04-22T03:51:28.891Z,2.67
2023-04-22T03:53:56.603Z,2.20
2023-04-22T03:56:24.457Z,2.08
2023-04-22T03:58:52.409Z,2.95
2023-04-22T04:01:21.583Z,2.25
2023-04-22T04:03:49.436Z,2.20
2023-04-22T04:06:17.319Z,2.20
2023-04-22T04:08:45.602Z,2.00
2023-04-22T04:11:13.255Z,2.50
2023-04-22T04:13:40.949Z,2.75
2023-04-22T04:16:08.771Z,2.20
2023-04-22T04:18:37.896Z,1.52
2023-04-22T04:21:05.958Z,1.13
2023-04-22T04:23:33.730Z,1.35
2023-04-22T04:26:02.641Z,1.10
2023-04-22T04:28:32.253Z,0.80
2023-04-22T04:31:02.649Z,1.35
2023-04-22T04:33:31.763Z,1.33
2023-04-22T04:36:01.565Z,1.25
2023-04-22T04:38:29.385Z,1.23
2023-04-22T04:40:57.984Z,1.60
2023-04-22T04:43:26.962Z,1.75
2023-04-22T04:45:54.644Z,1.52
2023-04-22T04:48:24.997Z,1.35
2023-04-22T04:50:54.130Z,1.45
2023-04-22T04:53:23.966Z,2.33
2023-04-22T04:55:51.692Z,2.00
2023-04-22T04:58:19.464Z,2.13
2023-04-22T05:00:48.500Z,1.85
2023-04-22T05:03:16.333Z,2.33
2023-04-22T05:05:46.212Z,2.55
2023-04-22T05:08:13.876Z,2.17
2023-04-22T05:10:43.306Z,1.92
2023-04-22T05:13:11.178Z,2.13
2023-04-22T05:15:39.026Z,1.75
2023-04-22T05:18:06.910Z,1.65
2023-04-22T05:20:36.144Z,2.80
2023-04-22T05:23:04.080Z,1.40
2023-04-22T05:25:31.862Z,1.42
2023-04-22T05:28:01.137Z,1.55
2023-04-22T05:30:28.829Z,2.25
2023-04-22T05:32:56.645Z,1.23
2023-04-22T05:35:24.473Z,1.13
2023-04-22T05:37:52.171Z,1.13
2023-04-22T05:40:19.952Z,0.95
2023-04-22T05:42:47.713Z,1.38
2023-04-22T05:45:17.592Z,1.30
2023-04-22T05:47:45.325Z,1.58
2023-04-22T05:50:13.086Z,1.55
2023-04-22T05:52:40.791Z,1.85
2023-04-22T05:55:09.422Z,1.15
2023-04-22T05:57:37.146Z,1.42
2023-04-22T06:00:06.672Z,1.45
2023-04-22T06:02:35.957Z,1.83
2023-04-22T06:05:04.219Z,1.17
2023-04-22T06:07:32.314Z,1.65
2023-04-22T06:10:05.196Z,1.55
2023-04-22T06:12:34.702Z,1.60
2023-04-22T06:15:02.442Z,1.55
2023-04-22T06:17:30.214Z,1.92
2023-04-22T06:19:59.274Z,1.40
2023-04-22T06:22:27.111Z,1.52
2023-04-22T06:24:54.813Z,1.80
2023-04-22T06:27:22.576Z,2.72
2023-04-22T06:29:50.332Z,3.28
2023-04-22T06:32:17.974Z,1.58
2023-04-22T06:34:45.636Z,1.65
2023-04-22T06:37:14.672Z,1.95
2023-04-22T06:39:43.171Z,1.63
2023-04-22T06:42:11.372Z,1.75
2023-04-22T06:44:39.228Z,1.42
2023-04-22T06:47:06.982Z,2.38
2023-04-22T06:49:35.587Z,2.50
2023-04-22T06:52:03.226Z,2.45
2023-04-22T06:54:32.399Z,2.30
2023-04-22T06:57:00.217Z,2.10
2023-04-22T06:59:27.934Z,1.65
2023-04-22T07:01:55.695Z,1.85
2023-04-22T07:04:23.554Z,1.55
2023-04-22T07:06:52.046Z,2.20
2023-04-22T07:09:19.836Z,1.98
2023-04-22T07:11:48.918Z,2.45
2023-04-22T07:14:16.934Z,2.13
2023-04-22T07:16:44.690Z,2.25
2023-04-22T07:19:12.421Z,1.90
2023-04-22T07:21:40.195Z,2.17
2023-04-22T07:24:11.737Z,2.05
2023-04-22T07:26:40.002Z,1.73
2023-04-22T07:29:09.065Z,2.70
2023-04-22T07:31:37.378Z,2.17
2023-04-22T07:34:05.306Z,2.30
2023-04-22T07:36:33.104Z,2.58
2023-04-22T07:39:00.907Z,2.33
2023-04-22T07:41:28.675Z,2.17
2023-04-22T07:43:56.455Z,2.15
2023-04-22T07:46:25.528Z,2.47
2023-04-22T07:48:53.604Z,2.20
2023-04-22T07:51:21.473Z,2.40
2023-04-22T07:53:49.167Z,2.53
2023-04-22T07:56:16.982Z,2.53
2023-04-22T07:58:44.675Z,1.90
2023-04-22T08:01:12.471Z,1.83
2023-04-22T08:03:41.864Z,2.63
2023-04-22T08:06:09.917Z,2.20
2023-04-22T08:08:37.685Z,2.40
2023-04-22T08:11:05.805Z,2.78
2023-04-22T08:13:33.533Z,2.15
2023-04-22T08:16:03.081Z,2.38
2023-04-22T08:18:31.244Z,2.17
2023-04-22T08:21:00.499Z,2.40
2023-04-22T08:23:28.275Z,2.13
2023-04-22T08:25:56.086Z,2.15
2023-04-22T08:28:23.942Z,2.47
2023-04-22T08:30:51.677Z,2.25
2023-04-22T08:33:19.387Z,2.33
2023-04-22T08:35:47.434Z,1.98
2023-04-22T08:38:16.545Z,2.03
2023-04-22T08:40:44.608Z,2.38
2023-04-22T08:43:13.283Z,1.98
2023-04-22T08:45:42.028Z,2.30
2023-04-22T08:48:11.262Z,2.17
2023-04-22T08:50:40.543Z,2.42
2023-04-22T08:53:08.412Z,2.70
2023-04-22T08:55:38.070Z,2.45
2023-04-22T08:58:06.309Z,2.55
2023-04-22T09:00:35.387Z,2.70
2023-04-22T09:03:06.985Z,2.60
2023-04-22T09:05:38.537Z,2.67
2023-04-22T09:08:07.772Z,2.90
2023-04-22T09:10:39.270Z,2.20
2023-04-22T09:13:08.475Z,2.90
2023-04-22T09:15:36.202Z,3.20
2023-04-22T09:18:05.410Z,2.70
2023-04-22T09:20:33.241Z,2.35
2023-04-22T09:23:05.146Z,2.47
2023-04-22T09:25:35.669Z,2.25
2023-04-22T09:28:05.159Z,2.53
2023-04-22T09:30:35.855Z,2.40
2023-04-22T09:33:06.409Z,2.75
2023-04-22T09:35:37.590Z,3.28
2023-04-22T09:38:08.697Z,2.42
2023-04-22T09:40:38.673Z,2.88
2023-04-22T09:43:09.938Z,2.60
2023-04-22T09:45:40.944Z,3.20
2023-04-22T09:48:10.866Z,3.20
2023-04-22T09:50:40.694Z,3.10
2023-04-22T09:53:11.113Z,2.80
2023-04-22T09:55:42.521Z,2.53
2023-04-22T09:58:13.897Z,2.78
2023-04-22T10:00:44.692Z,2.35
2023-04-22T10:03:12.669Z,2.40
2023-04-22T10:05:41.295Z,2.80
2023-04-22T10:08:11.316Z,2.60
2023-04-22T10:10:40.264Z,2.42
2023-04-22T10:13:09.149Z,2.28
2023-04-22T10:15:43.175Z,2.47
2023-04-22T10:18:17.093Z,2.28
2023-04-22T10:20:46.724Z,2.35
2023-04-22T10:23:19.587Z,2.55
2023-04-22T10:25:51.417Z,2.80
2023-04-22T10:28:22.233Z,2.50
2023-04-22T10:30:51.790Z,2.47
2023-04-22T10:33:39.736Z,7.70
2023-04-22T10:36:16.549Z,5.75
2023-04-22T10:39:17.671Z,3.17
2023-04-22T10:41:53.398Z,3.83
2023-04-22T10:44:22.513Z,4.70
2023-04-22T10:47:04.462Z,5.10
2023-04-22T10:49:32.870Z,7.55
2023-04-22T10:52:03.910Z,4.55
2023-04-22T10:54:59.338Z,4.07
2023-04-22T10:57:41.392Z,2.80
2023-04-22T11:00:35.358Z,2.90
2023-04-22T11:03:16.227Z,2.88
2023-04-22T11:05:45.188Z,2.90
2023-04-22T11:08:20.305Z,2.42
2023-04-22T11:10:50.714Z,1.55
2023-04-22T11:13:21.025Z,2.28
2023-04-22T11:15:51.501Z,1.85
2023-04-22T11:18:23.891Z,1.95
2023-04-22T11:20:53.616Z,2.28
2023-04-22T11:23:26.324Z,2.17
2023-04-22T11:26:00.072Z,1.83
2023-04-22T11:28:28.372Z,2.38
2023-04-22T11:31:08.360Z,1.63
2023-04-22T11:33:39.166Z,1.70
2023-04-22T11:36:12.141Z,1.20
2023-04-22T11:38:40.157Z,1.35
2023-04-22T11:41:07.941Z,1.35
2023-04-22T11:43:35.787Z,1.95
2023-04-22T11:46:05.036Z,1.67
2023-04-22T11:48:32.743Z,1.85
2023-04-22T11:51:12.888Z,2.00
2023-04-22T11:53:50.403Z,1.42
2023-04-22T11:56:18.129Z,1.70
2023-04-22T11:58:45.959Z,1.67
2023-04-22T12:01:14.846Z,2.10
2023-04-22T12:03:43.028Z,2.08
2023-04-22T12:06:12.633Z,1.70
2023-04-22T12:08:42.964Z,2.17
2023-04-22T12:11:13.244Z,1.90
2023-04-22T12:13:47.224Z,1.83
2023-04-22T12:16:19.221Z,2.00
2023-04-22T12:18:51.169Z,1.98
2023-04-22T12:21:23.501Z,1.52
2023-04-22T12:23:54.015Z,1.92
2023-04-22T12:26:26.384Z,2.25
2023-04-22T12:28:57.754Z,2.00
2023-04-22T12:31:28.920Z,2.22
2023-04-22T12:33:57.435Z,1.98
2023-04-22T12:36:26.701Z,1.92
2023-04-22T12:38:54.459Z,2.05
2023-04-22T12:41:22.849Z,2.08
2023-04-22T12:43:52.334Z,1.45
2023-04-22T12:46:20.297Z,1.58
2023-04-22T12:48:48.039Z,1.80
2023-04-22T12:51:15.726Z,2.17
2023-04-22T12:53:44.834Z,2.00
2023-04-22T12:56:12.581Z,2.03
2023-04-22T12:58:40.306Z,2.10
2023-04-22T13:01:08.173Z,1.73
2023-04-22T13:03:36.003Z,3.38
2023-04-22T13:06:04.037Z,2.38
2023-04-22T13:08:31.867Z,1.90
2023-04-22T13:11:01.043Z,1.50
2023-04-22T13:13:28.753Z,1.98
2023-04-22T13:15:56.925Z,1.83
2023-04-22T13:18:24.768Z,1.75
2023-04-22T13:20:52.825Z,1.58
2023-04-22T13:23:21.955Z,1.80
2023-04-22T13:25:50.252Z,1.90
2023-04-22T13:28:19.836Z,1.90
2023-04-22T13:30:47.600Z,2.28
2023-04-22T13:33:15.519Z,1.73
2023-04-22T13:35:43.343Z,2.10
2023-04-22T13:38:11.027Z,1.77
2023-04-22T13:40:38.864Z,2.10
2023-04-22T13:43:06.586Z,1.42
2023-04-22T13:45:36.474Z,2.08
2023-04-22T13:48:05.906Z,1.52
2023-04-22T13:50:33.997Z,1.95
2023-04-22T13:53:03.711Z,2.05
2023-04-22T13:55:31.803Z,1.88
2023-04-22T13:58:01.023Z,2.03
2023-04-22T14:00:29.212Z,1.83
2023-04-22T14:02:58.500Z,2.10
2023-04-22T14:05:26.912Z,2.10
2023-04-22T14:07:55.636Z,2.00
2023-04-22T14:10:23.639Z,1.77
2023-04-22T14:12:52.054Z,1.77
2023-04-22T14:15:19.978Z,2.00
2023-04-22T14:17:49.434Z,2.10
2023-04-22T14:20:18.808Z,1.70
2023-04-22T14:22:46.985Z,1.70
2023-04-22T14:25:14.798Z,1.83
2023-04-22T14:27:42.605Z,1.63
2023-04-22T14:30:11.777Z,2.28
2023-04-22T14:32:39.599Z,1.33
2023-04-22T14:35:08.233Z,1.65
2023-04-22T14:37:37.641Z,1.77
2023-04-22T14:40:06.594Z,1.98
2023-04-22T14:42:34.471Z,1.92
2023-04-22T14:45:02.248Z,1.75
2023-04-22T14:47:30.083Z,2.22
2023-04-22T14:49:57.987Z,1.73
2023-04-22T14:52:25.847Z,1.90
2023-04-22T14:54:54.902Z,2.13
2023-04-22T14:57:22.615Z,1.95
2023-04-22T14:59:50.374Z,1.45
2023-04-22T15:02:18.185Z,1.98
2023-04-22T15:04:47.188Z,2.13
2023-04-22T15:07:14.994Z,2.10
2023-04-22T15:09:43.296Z,1.33
2023-04-22T15:12:12.569Z,1.83
2023-04-22T15:14:40.491Z,1.95
2023-04-22T15:17:08.382Z,2.20
2023-04-22T15:19:36.325Z,1.77
2023-04-22T15:22:04.101Z,1.73
2023-04-22T15:24:32.105Z,1.67
2023-04-22T15:27:01.087Z,2.00
2023-04-22T15:29:32.055Z,2.17
2023-04-22T15:31:59.865Z,1.52
2023-04-22T15:34:27.832Z,2.05
2023-04-22T15:36:55.682Z,1.92
2023-04-22T15:39:25.025Z,2.08
2023-04-22T15:41:52.689Z,2.20
2023-04-22T15:44:20.530Z,2.03
2023-04-22T15:46:51.820Z,1.75
2023-04-22T15:49:19.714Z,2.00
2023-04-22T15:51:47.509Z,1.65
2023-04-22T15:54:15.558Z,1.75
2023-04-22T15:56:43.280Z,1.70
2023-04-22T15:59:11.556Z,1.83
2023-04-22T16:01:40.727Z,1.80
2023-04-22T16:04:10.380Z,1.95
2023-04-22T16:06:38.791Z,1.88
2023-04-22T16:09:06.524Z,1.88
2023-04-22T16:11:34.298Z,2.25
2023-04-22T16:14:02.035Z,1.85
2023-04-22T16:16:30.016Z,1.77
2023-04-22T16:18:59.322Z,2.20
2023-04-22T16:21:28.820Z,2.30
2023-04-22T16:23:56.547Z,2.15
2023-04-22T16:26:24.522Z,1.73
2023-04-22T16:28:52.263Z,1.58
2023-04-22T16:31:22.735Z,1.85
2023-04-22T16:33:51.768Z,1.75
2023-04-22T16:36:19.545Z,1.67
2023-04-22T16:38:48.647Z,2.38
2023-04-22T16:41:16.365Z,1.98
2023-04-22T16:43:44.132Z,2.63
2023-04-22T16:46:11.882Z,2.50
2023-04-22T16:48:39.651Z,2.17
2023-04-22T16:51:07.539Z,1.90
2023-04-22T16:53:36.075Z,1.77
2023-04-22T16:56:05.790Z,2.20
2023-04-22T16:58:33.944Z,1.80
2023-04-22T17:01:01.698Z,1.92
2023-04-22T17:03:29.590Z,1.73
2023-04-22T17:05:57.544Z,1.30
2023-04-22T17:08:25.256Z,2.17
2023-04-22T17:10:53.068Z,1.50
2023-04-22T17:13:22.296Z,2.00
2023-04-22T17:15:50.120Z,1.63
2023-04-22T17:18:17.897Z,2.00
2023-04-22T17:20:45.644Z,2.03
2023-04-22T17:23:13.386Z,2.15
2023-04-22T17:25:41.247Z,2.42
2023-04-22T17:28:10.885Z,2.45
2023-04-22T17:30:40.657Z,2.28
2023-04-22T17:33:08.383Z,2.28
2023-04-22T17:35:36.177Z,2.35
2023-04-22T17:38:04.000Z,2.50
2023-04-22T17:40:32.224Z,2.40
2023-04-22T17:42:59.905Z,2.38
2023-04-22T17:45:27.650Z,2.03
2023-04-22T17:47:56.885Z,2.28
2023-04-22T17:50:24.660Z,2.38
2023-04-22T17:52:52.580Z,1.95
2023-04-22T17:55:20.528Z,1.98
2023-04-22T17:57:48.451Z,2.70
2023-04-22T18:00:17.963Z,2.30
2023-04-22T18:02:46.062Z,2.05
2023-04-22T18:05:15.350Z,2.58
2023-04-22T18:07:43.062Z,2.50
2023-04-22T18:10:12.467Z,3.00
2023-04-22T18:12:41.109Z,2.60
2023-04-22T18:15:09.643Z,2.33
2023-04-22T18:17:37.406Z,2.22
2023-04-22T18:20:17.641Z,2.17
2023-04-22T18:22:51.848Z,2.15
2023-04-22T18:25:19.749Z,2.08
2023-04-22T18:27:47.573Z,1.95
2023-04-22T18:30:16.024Z,2.38
2023-04-22T18:32:43.829Z,2.25
2023-04-22T18:35:11.620Z,2.95
2023-04-22T18:37:39.352Z,2.55
2023-04-22T18:40:10.515Z,2.05
2023-04-22T18:42:38.862Z,2.10
2023-04-22T18:45:08.750Z,2.30
2023-04-22T18:47:36.646Z,2.70
2023-04-22T18:50:05.024Z,3.25
2023-04-22T18:52:33.054Z,2.28
2023-04-22T18:55:01.007Z,3.10
2023-04-22T18:57:30.182Z,3.10
2023-04-22T18:59:57.904Z,3.30
2023-04-22T19:02:25.857Z,3.33
2023-04-22T19:04:54.488Z,3.20
2023-04-22T19:07:22.314Z,2.40
2023-04-22T19:09:50.789Z,1.92
2023-04-22T19:12:19.467Z,2.80
2023-04-22T19:14:48.750Z,3.05
2023-04-22T19:17:16.511Z,2.85
2023-04-22T19:19:45.361Z,2.30
2023-04-22T19:22:13.430Z,2.67
2023-04-22T19:24:41.472Z,2.78
2023-04-22T19:27:12.497Z,2.38
2023-04-22T19:29:41.550Z,2.63
2023-04-22T19:32:12.414Z,2.63
2023-04-22T19:34:40.328Z,2.30
2023-04-22T19:37:08.082Z,2.08
2023-04-22T19:39:36.202Z,2.47
2023-04-22T19:42:04.123Z,2.28
2023-04-22T19:44:32.113Z,2.20
2023-04-22T19:46:59.967Z,1.95
2023-04-22T19:49:32.347Z,2.17
2023-04-22T19:52:03.014Z,2.80
2023-04-22T19:54:31.601Z,2.83
2023-04-22T19:56:59.534Z,2.30
2023-04-22T19:59:31.594Z,2.63
2023-04-22T20:01:59.985Z,2.90
2023-04-22T20:04:30.081Z,3.10
2023-04-22T20:07:00.784Z,2.85
2023-04-22T20:09:32.738Z,2.92
2023-04-22T20:12:01.259Z,3.10
2023-04-22T20:14:29.738Z,3.60
2023-04-22T20:16:57.961Z,3.78
2023-04-22T20:19:27.560Z,2.80
2023-04-22T20:21:58.600Z,2.80
2023-04-22T20:24:29.706Z,2.20
2023-04-22T20:26:58.116Z,2.38
2023-04-22T20:29:26.794Z,2.80
2023-04-22T20:31:56.351Z,2.05
2023-04-22T20:34:25.205Z,2.30
2023-04-22T20:36:54.724Z,2.88
2023-04-22T20:39:25.414Z,2.88
2023-04-22T20:41:56.470Z,3.10
2023-04-22T20:44:24.200Z,2.75
2023-04-22T20:46:51.949Z,2.97
2023-04-22T20:49:19.690Z,2.97
2023-04-22T20:51:48.203Z,2.72
2023-04-22T20:54:27.693Z,2.85
2023-04-22T20:56:58.791Z,3.30
2023-04-22T20:59:26.465Z,3.00
2023-04-22T21:01:55.328Z,2.72
2023-04-22T21:04:24.801Z,2.80
2023-04-22T21:06:54.559Z,2.55
2023-04-22T21:09:25.740Z,3.00
2023-04-22T21:11:54.763Z,2.42
2023-04-22T21:14:26.231Z,2.50
2023-04-22T21:17:01.143Z,3.10
2023-04-22T21:19:34.379Z,2.30
2023-04-22T21:22:06.239Z,2.70
2023-04-22T21:24:35.816Z,2.60
2023-04-22T21:27:04.319Z,2.95
2023-04-22T21:29:34.153Z,3.30
2023-04-22T21:32:09.397Z,3.80
2023-04-22T21:34:38.049Z,2.88
2023-04-22T21:37:07.705Z,2.85
2023-04-22T21:39:36.177Z,2.83
2023-04-22T21:42:07.423Z,3.50
2023-04-22T21:44:38.081Z,2.88
2023-04-22T21:47:06.752Z,2.75
2023-04-22T21:49:34.625Z,2.72
2023-04-22T21:52:02.509Z,2.92
2023-04-22T21:54:30.618Z,2.30
2023-04-22T21:56:58.555Z,2.45
2023-04-22T21:59:26.294Z,2.88
2023-04-22T22:01:55.330Z,2.90
2023-04-22T22:04:23.266Z,3.13
2023-04-22T22:06:51.190Z,3.47
2023-04-22T22:09:19.005Z,2.67
2023-04-22T22:11:46.747Z,2.90
2023-04-22T22:14:15.376Z,2.60
2023-04-22T22:16:43.647Z,3.05
2023-04-22T22:19:13.922Z,3.20
2023-04-22T22:21:41.646Z,3.00
2023-04-22T22:24:10.446Z,2.80
2023-04-22T22:26:40.929Z,2.47
2023-04-22T22:29:15.043Z,3.22
2023-04-22T22:31:43.058Z,3.08
2023-04-22T22:34:12.572Z,2.95
2023-04-22T22:36:41.093Z,2.60
2023-04-22T22:39:10.619Z,2.50
2023-04-22T22:41:38.308Z,3.13
2023-04-22T22:44:06.055Z,2.70
2023-04-22T22:46:34.041Z,2.88
2023-04-22T22:49:01.828Z,3.40
2023-04-22T22:51:32.533Z,2.65
2023-04-22T22:54:00.583Z,2.90
2023-04-22T22:56:28.360Z,2.50
2023-04-22T22:58:56.167Z,2.92
2023-04-22T23:01:24.277Z,2.95
2023-04-22T23:03:52.201Z,2.70
2023-04-22T23:06:20.041Z,2.58
2023-04-22T23:08:49.186Z,2.40
2023-04-22T23:11:16.977Z,3.60
2023-04-22T23:13:44.762Z,2.85
2023-04-22T23:16:12.517Z,2.75
2023-04-22T23:18:41.322Z,2.42
2023-04-22T23:21:10.094Z,2.80
2023-04-22T23:23:38.439Z,2.90
2023-04-22T23:26:08.835Z,2.67
2023-04-22T23:28:37.415Z,2.63
2023-04-22T23:31:08.044Z,3.00
2023-04-22T23:33:42.055Z,2.85
2023-04-22T23:36:13.470Z,2.40
2023-04-22T23:38:42.393Z,2.90
2023-04-22T23:41:11.507Z,2.80
2023-04-22T23:43:39.221Z,2.55
2023-04-22T23:46:07.071Z,2.63
2023-04-22T23:48:35.955Z,2.45
2023-04-22T23:51:03.718Z,2.03
2023-04-22T23:53:31.694Z,2.70
2023-04-22T23:56:00.764Z,2.80
2023-04-22T23:58:30.586Z,2.78
